createdAt,value
2017-08-20T00:00:47.498Z,4.50
2017-08-20T00:03:15.011Z,4.17
2017-08-20T00:05:43.401Z,3.87
2017-08-20T00:08:10.906Z,3.80
2017-08-20T00:10:38.411Z,3.70
2017-08-20T00:13:05.989Z,3.27
2017-08-20T00:15:33.469Z,3.37
2017-08-20T00:18:00.969Z,3.33
2017-08-20T00:20:28.461Z,3.40
2017-08-20T00:22:55.963Z,3.05
2017-08-20T00:25:25.449Z,3.00
2017-08-20T00:27:52.934Z,2.90
2017-08-20T00:30:20.437Z,4.33
2017-08-20T00:32:48.862Z,6.30
2017-08-20T00:35:16.396Z,5.00
2017-08-20T00:37:43.880Z,5.30
2017-08-20T00:40:11.398Z,4.10
2017-08-20T00:42:38.878Z,3.30
2017-08-20T00:45:06.378Z,4.60
2017-08-20T00:47:34.840Z,3.67
2017-08-20T00:50:02.330Z,3.90
2017-08-20T00:52:29.807Z,4.00
2017-08-20T00:54:57.311Z,4.30
2017-08-20T00:57:24.792Z,3.43
2017-08-20T00:59:52.312Z,3.67
2017-08-20T01:02:19.794Z,3.00
2017-08-20T01:04:47.295Z,3.22
2017-08-20T01:07:14.791Z,3.55
2017-08-20T01:09:42.286Z,3.42
2017-08-20T01:12:10.730Z,3.27
2017-08-20T01:14:39.130Z,3.90
2017-08-20T01:17:06.619Z,3.73
2017-08-20T01:19:34.151Z,3.53
2017-08-20T01:22:02.562Z,3.33
2017-08-20T01:24:30.066Z,3.43
2017-08-20T01:26:57.563Z,4.10
2017-08-20T01:29:25.062Z,3.50
2017-08-20T01:31:52.546Z,3.33
2017-08-20T01:34:20.058Z,2.97
2017-08-20T01:36:47.548Z,3.55
2017-08-20T01:39:15.050Z,3.53
2017-08-20T01:41:42.538Z,3.30
2017-08-20T01:44:11.977Z,3.83
2017-08-20T01:46:39.493Z,4.13
2017-08-20T01:49:08.922Z,4.50
2017-08-20T01:51:36.413Z,3.63
2017-08-20T01:54:05.871Z,4.47
2017-08-20T01:56:33.355Z,4.50
2017-08-20T01:59:00.866Z,4.43
2017-08-20T02:01:28.359Z,4.40
2017-08-20T02:03:55.853Z,4.33
2017-08-20T02:06:24.298Z,4.10
2017-08-20T02:08:51.802Z,5.00
2017-08-20T02:11:19.290Z,3.65
2017-08-20T02:13:48.727Z,5.10
2017-08-20T02:16:16.232Z,4.03
2017-08-20T02:18:43.747Z,4.35
2017-08-20T02:21:11.241Z,4.10
2017-08-20T02:23:40.670Z,4.28
2017-08-20T02:26:08.159Z,4.40
2017-08-20T02:28:35.675Z,4.65
2017-08-20T02:31:03.170Z,4.10
2017-08-20T02:33:30.705Z,4.12
2017-08-20T02:35:59.127Z,3.60
2017-08-20T02:38:26.638Z,4.18
2017-08-20T02:40:54.139Z,3.53
2017-08-20T02:43:21.655Z,3.40
2017-08-20T02:45:49.155Z,3.62
2017-08-20T02:48:18.652Z,3.35
2017-08-20T02:50:46.299Z,3.50
2017-08-20T02:53:13.808Z,4.75
2017-08-20T02:55:41.323Z,3.70
2017-08-20T02:58:08.806Z,3.97
2017-08-20T03:00:36.310Z,4.10
2017-08-20T03:03:03.842Z,3.22
2017-08-20T03:05:44.690Z,3.37
2017-08-20T03:08:12.170Z,3.50
2017-08-20T03:10:39.678Z,3.67
2017-08-20T03:13:07.167Z,4.40
2017-08-20T03:15:36.664Z,3.45
2017-08-20T03:18:04.146Z,4.25
2017-08-20T03:20:31.653Z,4.43
2017-08-20T03:22:59.134Z,3.83
2017-08-20T03:25:26.636Z,3.20
2017-08-20T03:27:54.137Z,4.40
2017-08-20T03:30:21.632Z,3.90
2017-08-20T03:32:51.095Z,4.12
2017-08-20T03:35:18.578Z,4.90
2017-08-20T03:37:46.085Z,3.85
2017-08-20T03:40:13.567Z,4.32
2017-08-20T03:42:42.006Z,4.55
2017-08-20T03:45:09.506Z,3.95
2017-08-20T03:47:37.006Z,4.18
2017-08-20T03:50:04.486Z,4.03
2017-08-20T03:52:31.995Z,4.00
2017-08-20T03:55:00.418Z,4.50
2017-08-20T03:57:27.927Z,3.80
2017-08-20T03:59:55.434Z,4.68
2017-08-20T04:02:22.918Z,4.32
2017-08-20T04:04:50.418Z,4.45
2017-08-20T04:07:18.851Z,4.37
2017-08-20T04:09:46.344Z,4.85
2017-08-20T04:12:13.842Z,4.37
2017-08-20T04:14:41.358Z,4.62
2017-08-20T04:17:08.850Z,5.00
2017-08-20T04:19:36.352Z,5.25
2017-08-20T04:22:04.839Z,4.82
2017-08-20T04:24:32.352Z,4.90
2017-08-20T04:26:59.832Z,4.80
2017-08-20T04:29:27.391Z,4.50
2017-08-20T04:31:54.871Z,4.75
2017-08-20T04:34:22.393Z,4.55
2017-08-20T04:36:49.900Z,4.25
2017-08-20T04:39:17.409Z,4.53
2017-08-20T04:41:44.906Z,5.40
2017-08-20T04:44:14.334Z,4.10
2017-08-20T04:46:41.826Z,4.35
2017-08-20T04:49:09.339Z,4.75
2017-08-20T04:51:36.842Z,4.25
2017-08-20T04:54:04.358Z,4.43
2017-08-20T04:56:31.851Z,4.87
2017-08-20T04:58:59.358Z,5.50
2017-08-20T05:01:26.842Z,4.70
2017-08-20T05:03:54.350Z,4.57
2017-08-20T05:06:21.834Z,3.90
2017-08-20T05:08:49.339Z,4.05
2017-08-20T05:11:16.822Z,3.90
2017-08-20T05:13:44.322Z,4.10
2017-08-20T05:16:11.798Z,4.15
2017-08-20T05:18:39.307Z,4.50
2017-08-20T05:21:06.795Z,5.32
2017-08-20T05:23:34.297Z,5.05
2017-08-20T05:26:01.802Z,5.10
2017-08-20T05:28:29.296Z,5.55
2017-08-20T05:30:56.791Z,5.35
2017-08-20T05:33:24.361Z,5.28
2017-08-20T05:35:52.375Z,5.37
2017-08-20T05:38:19.853Z,5.68
2017-08-20T05:40:47.362Z,4.80
2017-08-20T05:43:14.837Z,5.05
2017-08-20T05:45:42.342Z,4.72
2017-08-20T05:48:09.826Z,4.50
2017-08-20T05:50:37.334Z,4.55
2017-08-20T05:53:05.850Z,5.15
2017-08-20T05:55:34.281Z,4.70
2017-08-20T05:58:01.779Z,4.65
2017-08-20T06:00:29.278Z,4.70
2017-08-20T06:02:56.780Z,3.87
2017-08-20T06:05:24.262Z,4.40
2017-08-20T06:07:51.766Z,4.50
2017-08-20T06:10:19.246Z,4.10
2017-08-20T06:12:48.738Z,3.05
2017-08-20T06:15:16.226Z,3.78
2017-08-20T06:17:43.726Z,3.83
2017-08-20T06:20:11.206Z,3.97
2017-08-20T06:22:38.722Z,3.70
2017-08-20T06:25:06.234Z,3.65
2017-08-20T06:27:33.714Z,4.00
2017-08-20T06:30:01.350Z,3.13
2017-08-20T06:32:29.806Z,3.95
2017-08-20T06:34:57.304Z,3.97
2017-08-20T06:37:24.909Z,3.17
2017-08-20T06:39:54.383Z,3.30
2017-08-20T06:42:22.011Z,3.03
2017-08-20T06:44:49.529Z,3.40
2017-08-20T06:47:17.958Z,3.87
2017-08-20T06:49:45.487Z,3.33
2017-08-20T06:52:12.966Z,3.20
2017-08-20T06:54:40.494Z,3.30
2017-08-20T06:57:07.985Z,2.90
2017-08-20T06:59:35.525Z,3.57
2017-08-20T07:02:03.031Z,2.97
2017-08-20T07:04:30.535Z,3.23
2017-08-20T07:06:58.018Z,2.80
2017-08-20T07:09:25.538Z,2.95
2017-08-20T07:11:53.026Z,2.80
2017-08-20T07:14:20.534Z,3.30
2017-08-20T07:16:48.082Z,3.30
2017-08-20T07:19:15.577Z,2.85
2017-08-20T07:21:45.002Z,2.70
2017-08-20T07:24:12.499Z,3.57
2017-08-20T07:26:40.001Z,3.60
2017-08-20T07:29:07.491Z,3.03
2017-08-20T07:31:34.994Z,3.60
2017-08-20T07:34:02.483Z,3.60
2017-08-20T07:36:30.068Z,3.00
2017-08-20T07:38:57.572Z,3.63
2017-08-20T07:41:25.058Z,2.73
2017-08-20T07:43:54.480Z,2.80
2017-08-20T07:46:21.973Z,3.47
2017-08-20T07:48:49.453Z,2.60
2017-08-20T07:51:16.945Z,3.17
2017-08-20T07:53:45.661Z,3.20
2017-08-20T07:56:13.235Z,2.93
2017-08-20T07:58:41.595Z,2.57
2017-08-20T08:01:09.108Z,2.43
2017-08-20T08:03:36.598Z,3.33
2017-08-20T08:06:04.103Z,3.07
2017-08-20T08:08:31.627Z,2.57
2017-08-20T08:10:59.138Z,2.80
2017-08-20T08:13:26.646Z,3.13
2017-08-20T08:15:54.175Z,2.90
2017-08-20T08:18:23.711Z,3.60
2017-08-20T08:20:51.247Z,2.90
2017-08-20T08:23:18.736Z,3.60
2017-08-20T08:25:46.265Z,3.10
2017-08-20T08:28:13.757Z,4.40
2017-08-20T08:30:41.304Z,4.30
2017-08-20T08:33:08.920Z,3.13
2017-08-20T08:35:36.406Z,2.80
2017-08-20T08:38:03.978Z,2.77
2017-08-20T08:40:31.470Z,2.40
2017-08-20T08:42:58.981Z,2.73
2017-08-20T08:45:27.401Z,2.93
2017-08-20T08:47:54.903Z,2.83
2017-08-20T08:50:22.386Z,3.60
2017-08-20T08:52:50.891Z,3.37
2017-08-20T08:55:18.398Z,4.10
2017-08-20T08:57:45.876Z,2.47
2017-08-20T09:00:13.449Z,3.37
2017-08-20T09:02:40.937Z,3.90
2017-08-20T09:05:09.384Z,3.17
2017-08-20T09:07:36.899Z,2.90
2017-08-20T09:10:04.434Z,2.60
2017-08-20T09:12:31.920Z,2.93
2017-08-20T09:14:59.530Z,2.77
2017-08-20T09:17:27.006Z,3.30
2017-08-20T09:19:54.506Z,2.73
2017-08-20T09:22:22.078Z,2.80
2017-08-20T09:24:51.540Z,2.70
2017-08-20T09:27:19.962Z,3.70
2017-08-20T09:29:47.443Z,2.97
2017-08-20T09:32:14.950Z,3.17
2017-08-20T09:34:42.438Z,2.60
2017-08-20T09:37:09.950Z,3.30
2017-08-20T09:39:37.455Z,2.57
2017-08-20T09:42:04.968Z,2.30
2017-08-20T09:44:32.469Z,2.73
2017-08-20T09:46:59.986Z,3.37
2017-08-20T09:49:27.489Z,3.30
2017-08-20T09:51:54.996Z,3.17
2017-08-20T09:54:22.644Z,3.00
2017-08-20T09:56:50.170Z,2.57
2017-08-20T09:59:17.651Z,3.30
2017-08-20T10:01:45.277Z,2.70
2017-08-20T10:04:12.834Z,3.00
2017-08-20T10:06:40.353Z,3.40
2017-08-20T10:09:08.710Z,3.50
2017-08-20T10:11:36.270Z,2.20
2017-08-20T10:14:03.755Z,2.63
2017-08-20T10:16:31.255Z,3.00
2017-08-20T10:18:58.733Z,2.77
2017-08-20T10:21:26.239Z,2.40
2017-08-20T10:23:53.721Z,1.87
2017-08-20T10:26:22.009Z,2.40
2017-08-20T10:28:49.513Z,2.00
2017-08-20T10:31:17.036Z,2.20
2017-08-20T10:33:45.506Z,2.00
2017-08-20T10:36:13.868Z,2.13
2017-08-20T10:38:41.525Z,2.30
2017-08-20T10:41:09.030Z,2.27
2017-08-20T10:43:36.543Z,2.40
2017-08-20T10:46:04.044Z,2.23
2017-08-20T10:48:36.242Z,2.20
2017-08-20T10:51:03.734Z,2.20
2017-08-20T10:53:31.251Z,2.53
2017-08-20T10:55:58.743Z,2.30
2017-08-20T10:58:27.168Z,2.80
2017-08-20T11:00:54.674Z,2.30
2017-08-20T11:03:22.155Z,2.10
2017-08-20T11:05:49.663Z,2.70
2017-08-20T11:08:17.147Z,1.90
2017-08-20T11:10:44.663Z,2.13
2017-08-20T11:13:12.149Z,2.17
2017-08-20T11:15:39.649Z,1.70
2017-08-20T11:18:07.152Z,1.80
2017-08-20T11:20:34.639Z,1.57
2017-08-20T11:23:02.147Z,1.73
2017-08-20T11:25:30.582Z,1.83
2017-08-20T11:27:58.074Z,2.23
2017-08-20T11:30:25.558Z,1.47
2017-08-20T11:32:53.077Z,1.33
2017-08-20T11:35:20.555Z,2.33
2017-08-20T11:37:48.057Z,1.70
2017-08-20T11:40:15.554Z,1.40
2017-08-20T11:42:43.065Z,1.00
2017-08-20T11:45:11.491Z,1.27
2017-08-20T11:47:38.962Z,1.50
2017-08-20T11:50:06.457Z,1.40
2017-08-20T11:52:33.946Z,1.20
2017-08-20T11:55:01.446Z,1.37
2017-08-20T11:57:28.946Z,1.60
2017-08-20T11:59:56.432Z,1.80
2017-08-20T12:02:23.939Z,1.20
2017-08-20T12:04:51.421Z,2.00
2017-08-20T12:07:18.922Z,1.40
2017-08-20T12:09:46.433Z,1.57
2017-08-20T12:12:14.831Z,1.90
2017-08-20T12:14:42.350Z,1.40
2017-08-20T12:17:09.855Z,1.50
2017-08-20T12:19:38.284Z,1.70
2017-08-20T12:22:06.718Z,1.67
2017-08-20T12:24:34.202Z,1.97
2017-08-20T12:27:01.688Z,1.70
2017-08-20T12:29:29.182Z,1.53
2017-08-20T12:31:56.682Z,1.97
2017-08-20T12:34:24.157Z,1.77
2017-08-20T12:36:53.602Z,1.53
2017-08-20T12:39:21.117Z,1.73
2017-08-20T12:41:48.606Z,2.27
2017-08-20T12:44:16.106Z,1.30
2017-08-20T12:46:43.587Z,2.20
2017-08-20T12:49:11.082Z,1.60
2017-08-20T12:51:38.573Z,2.27
2017-08-20T12:54:06.083Z,1.93
2017-08-20T12:56:33.586Z,2.13
2017-08-20T12:59:01.094Z,2.00
2017-08-20T13:01:28.570Z,1.90
2017-08-20T13:03:56.066Z,1.63
2017-08-20T13:06:23.562Z,1.60
2017-08-20T13:08:51.064Z,1.90
2017-08-20T13:11:18.566Z,1.33
2017-08-20T13:13:46.057Z,1.20
2017-08-20T13:16:13.545Z,1.50
2017-08-20T13:18:42.034Z,1.30
2017-08-20T13:21:09.570Z,1.40
2017-08-20T13:23:39.006Z,1.53
2017-08-20T13:26:06.503Z,1.40
2017-08-20T13:28:34.014Z,1.00
2017-08-20T13:31:01.501Z,1.37
2017-08-20T13:33:28.990Z,1.30
2017-08-20T13:35:56.468Z,1.57
2017-08-20T13:38:25.930Z,1.57
2017-08-20T13:40:53.409Z,2.20
2017-08-20T13:43:20.936Z,1.10
2017-08-20T13:45:49.346Z,2.10
2017-08-20T13:48:16.842Z,1.80
2017-08-20T13:50:44.322Z,1.53
2017-08-20T13:53:11.842Z,2.03
2017-08-20T13:55:39.330Z,1.70
2017-08-20T13:58:06.831Z,1.63
2017-08-20T14:00:34.310Z,1.60
2017-08-20T14:03:01.808Z,1.70
2017-08-20T14:05:29.294Z,1.57
2017-08-20T14:07:56.785Z,1.50
2017-08-20T14:10:24.287Z,1.77
2017-08-20T14:12:51.926Z,1.40
2017-08-20T14:15:19.516Z,4.17
2017-08-20T14:17:47.018Z,10.37
2017-08-20T14:20:14.573Z,10.43
2017-08-20T14:22:42.063Z,12.43
2017-08-20T14:25:09.584Z,5.30
2017-08-20T14:27:37.058Z,2.67
2017-08-20T14:30:04.647Z,3.20
2017-08-20T14:32:32.139Z,1.80
2017-08-20T14:35:00.606Z,1.67
2017-08-20T14:37:31.074Z,2.90
2017-08-20T14:39:58.713Z,5.40
2017-08-20T14:42:26.231Z,5.10
2017-08-20T14:44:53.731Z,4.90
2017-08-20T14:47:21.249Z,3.70
2017-08-20T14:49:48.731Z,3.13
2017-08-20T14:52:19.423Z,3.90
2017-08-20T14:54:48.013Z,3.10
2017-08-20T14:57:15.640Z,2.63
2017-08-20T14:59:43.216Z,3.17
2017-08-20T15:02:10.807Z,2.10
2017-08-20T15:04:38.393Z,2.30
2017-08-20T15:07:06.002Z,2.20
2017-08-20T15:09:33.785Z,2.30
2017-08-20T15:12:01.325Z,2.03
2017-08-20T15:14:28.886Z,2.27
2017-08-20T15:16:56.474Z,1.80
2017-08-20T15:19:24.026Z,1.80
2017-08-20T15:21:51.577Z,1.53
2017-08-20T15:24:19.141Z,1.90
2017-08-20T15:26:46.743Z,2.50
2017-08-20T15:29:14.282Z,1.93
2017-08-20T15:31:41.854Z,2.87
2017-08-20T15:34:09.365Z,2.10
2017-08-20T15:36:36.934Z,1.90
2017-08-20T15:39:04.565Z,1.83
2017-08-20T15:41:32.088Z,1.60
2017-08-20T15:44:01.587Z,1.83
2017-08-20T15:46:29.125Z,2.00
2017-08-20T15:48:56.622Z,5.77
2017-08-20T15:51:25.052Z,9.50
2017-08-20T15:53:52.552Z,2.27
2017-08-20T15:56:20.041Z,2.20
2017-08-20T15:58:47.540Z,1.40
2017-08-20T16:01:15.026Z,2.30
2017-08-20T16:03:42.619Z,2.97
2017-08-20T16:06:10.122Z,2.50
2017-08-20T16:08:37.651Z,1.73
2017-08-20T16:11:05.192Z,2.00
2017-08-20T16:13:32.674Z,1.70
2017-08-20T16:16:00.184Z,1.53
2017-08-20T16:18:27.678Z,2.07
2017-08-20T16:20:55.227Z,1.60
2017-08-20T16:23:22.808Z,1.60
2017-08-20T16:25:50.384Z,1.83
2017-08-20T16:28:17.868Z,2.13
2017-08-20T16:30:45.413Z,2.03
2017-08-20T16:33:12.962Z,1.77
2017-08-20T16:35:40.458Z,3.07
2017-08-20T16:38:07.960Z,1.70
2017-08-20T16:40:35.487Z,2.63
2017-08-20T16:43:03.102Z,1.70
2017-08-20T16:45:30.779Z,2.10
2017-08-20T16:47:58.423Z,2.27
2017-08-20T16:50:25.990Z,1.97
2017-08-20T16:52:53.530Z,1.70
2017-08-20T16:55:21.109Z,1.53
2017-08-20T16:57:48.623Z,2.00
2017-08-20T17:00:16.200Z,1.57
2017-08-20T17:02:43.758Z,2.27
2017-08-20T17:05:11.319Z,1.63
2017-08-20T17:07:40.185Z,2.70
2017-08-20T17:10:07.731Z,2.20
2017-08-20T17:12:35.282Z,1.70
2017-08-20T17:15:03.815Z,1.40
2017-08-20T17:17:31.362Z,1.90
2017-08-20T17:19:58.904Z,2.13
2017-08-20T17:22:26.436Z,1.53
2017-08-20T17:24:53.995Z,1.70
2017-08-20T17:27:21.542Z,2.17
2017-08-20T17:29:49.060Z,1.43
2017-08-20T17:32:16.612Z,1.77
2017-08-20T17:34:46.274Z,1.87
2017-08-20T17:37:13.896Z,2.10
2017-08-20T17:39:41.472Z,1.63
2017-08-20T17:42:10.937Z,1.70
2017-08-20T17:44:39.465Z,2.10
2017-08-20T17:47:07.052Z,2.53
2017-08-20T17:49:35.465Z,1.93
2017-08-20T17:52:02.982Z,1.80
2017-08-20T17:54:30.467Z,1.90
2017-08-20T17:56:57.976Z,2.30
2017-08-20T17:59:25.450Z,2.37
2017-08-20T18:01:54.897Z,3.17
2017-08-20T18:04:22.375Z,2.63
2017-08-20T18:06:51.835Z,2.07
2017-08-20T18:09:19.310Z,2.60
2017-08-20T18:11:46.812Z,2.53
2017-08-20T18:14:14.286Z,2.40
2017-08-20T18:16:41.778Z,2.80
2017-08-20T18:19:09.258Z,2.20
2017-08-20T18:21:36.762Z,2.20
2017-08-20T18:24:05.235Z,3.60
2017-08-20T18:26:32.730Z,2.50
2017-08-20T18:29:00.211Z,2.67
2017-08-20T18:31:27.722Z,3.30
2017-08-20T18:33:55.226Z,3.10
2017-08-20T18:36:22.730Z,2.80
2017-08-20T18:38:51.160Z,1.90
2017-08-20T18:41:18.678Z,2.10
2017-08-20T18:43:46.159Z,2.30
2017-08-20T18:46:14.610Z,2.40
2017-08-20T18:48:42.106Z,2.67
2017-08-20T18:51:09.609Z,2.80
2017-08-20T18:53:37.110Z,2.73
2017-08-20T18:56:04.594Z,2.80
2017-08-20T18:58:32.089Z,3.30
2017-08-20T19:00:59.610Z,3.30
2017-08-20T19:03:27.154Z,2.60
2017-08-20T19:05:54.695Z,2.60
2017-08-20T19:08:22.194Z,2.57
2017-08-20T19:10:49.698Z,2.30
2017-08-20T19:13:17.178Z,3.57
2017-08-20T19:15:46.624Z,2.50
2017-08-20T19:18:14.139Z,3.40
2017-08-20T19:20:41.642Z,2.53
2017-08-20T19:23:09.142Z,3.23
2017-08-20T19:25:38.009Z,3.70
2017-08-20T19:28:05.551Z,2.80
2017-08-20T19:30:33.077Z,3.67
2017-08-20T19:33:00.659Z,3.77
2017-08-20T19:35:28.285Z,3.53
2017-08-20T19:37:55.860Z,3.40
2017-08-20T19:40:23.507Z,3.30
2017-08-20T19:42:51.046Z,3.40
2017-08-20T19:45:19.479Z,3.97
2017-08-20T19:47:47.028Z,4.30
2017-08-20T19:50:14.561Z,3.80
2017-08-20T19:52:42.119Z,4.23
2017-08-20T19:55:09.633Z,3.67
2017-08-20T19:57:37.135Z,3.83
2017-08-20T20:00:04.634Z,4.20
2017-08-20T20:02:32.114Z,4.20
2017-08-20T20:04:59.614Z,4.57
2017-08-20T20:07:28.034Z,4.80
2017-08-20T20:09:55.552Z,4.90
2017-08-20T20:12:23.099Z,5.37
2017-08-20T20:14:50.582Z,5.57
2017-08-20T20:17:18.108Z,5.10
2017-08-20T20:19:45.578Z,5.90
2017-08-20T20:22:15.012Z,5.10
2017-08-20T20:24:42.495Z,5.60
2017-08-20T20:27:09.986Z,5.53
2017-08-20T20:29:38.430Z,5.93
2017-08-20T20:32:05.915Z,6.97
2017-08-20T20:34:33.418Z,7.27
2017-08-20T20:37:00.898Z,6.00
2017-08-20T20:39:28.387Z,6.53
2017-08-20T20:41:55.894Z,5.93
2017-08-20T20:44:23.790Z,6.50
2017-08-20T20:46:51.369Z,6.73
2017-08-20T20:49:20.802Z,5.67
2017-08-20T20:51:48.294Z,6.00
2017-08-20T20:54:15.826Z,6.17
2017-08-20T20:56:44.255Z,6.30
2017-08-20T20:59:11.773Z,6.23
2017-08-20T21:01:39.279Z,5.87
2017-08-20T21:04:06.809Z,6.40
2017-08-20T21:06:34.286Z,5.47
2017-08-20T21:09:03.770Z,6.80
2017-08-20T21:11:31.253Z,6.10
2017-08-20T21:13:58.779Z,6.90
2017-08-20T21:16:26.326Z,6.22
2017-08-20T21:18:53.880Z,6.22
2017-08-20T21:21:21.447Z,6.07
2017-08-20T21:23:48.955Z,6.55
2017-08-20T21:26:16.505Z,6.10
2017-08-20T21:28:44.031Z,6.63
2017-08-20T21:31:11.636Z,6.47
2017-08-20T21:33:39.284Z,8.00
2017-08-20T21:36:06.878Z,7.20
2017-08-20T21:38:34.423Z,7.95
2017-08-20T21:41:01.966Z,7.95
2017-08-20T21:43:29.463Z,7.62
2017-08-20T21:45:58.935Z,8.23
2017-08-20T21:48:26.422Z,8.20
2017-08-20T21:50:53.922Z,7.03
2017-08-20T21:53:21.402Z,7.00
2017-08-20T21:55:49.802Z,8.23
2017-08-20T21:58:17.284Z,7.53
2017-08-20T22:00:46.725Z,7.32
2017-08-20T22:03:14.209Z,6.95
2017-08-20T22:05:41.710Z,7.72
2017-08-20T22:08:09.222Z,7.80
2017-08-20T22:10:37.683Z,8.23
2017-08-20T22:13:05.191Z,7.40
2017-08-20T22:15:32.671Z,7.05
2017-08-20T22:18:00.176Z,6.45
2017-08-20T22:20:27.658Z,7.50
2017-08-20T22:22:55.206Z,6.90
2017-08-20T22:25:23.645Z,7.30
2017-08-20T22:27:51.162Z,8.13
2017-08-20T22:30:18.655Z,8.60
2017-08-20T22:32:46.162Z,8.23
2017-08-20T22:35:13.646Z,8.18
2017-08-20T22:37:41.171Z,7.93
2017-08-20T22:40:08.682Z,7.35
2017-08-20T22:42:36.174Z,6.12
2017-08-20T22:45:05.642Z,7.85
2017-08-20T22:47:33.158Z,7.43
2017-08-20T22:50:00.695Z,7.60
2017-08-20T22:52:28.176Z,8.07
2017-08-20T22:54:55.687Z,8.18
2017-08-20T22:57:23.186Z,7.00
2017-08-20T22:59:50.683Z,7.90
2017-08-20T23:02:18.173Z,8.15
2017-08-20T23:04:47.594Z,6.82
2017-08-20T23:07:15.082Z,6.57
2017-08-20T23:09:42.587Z,6.65
2017-08-20T23:12:10.103Z,7.25
2017-08-20T23:14:37.634Z,6.80
2017-08-20T23:17:05.120Z,7.30
2017-08-20T23:19:32.650Z,7.05
2017-08-20T23:22:00.166Z,7.05
2017-08-20T23:24:27.690Z,6.50
2017-08-20T23:26:56.188Z,6.95
2017-08-20T23:29:23.686Z,6.68
2017-08-20T23:31:51.187Z,7.30
2017-08-20T23:34:18.687Z,7.43
2017-08-20T23:36:48.109Z,6.25
2017-08-20T23:39:15.605Z,6.57
2017-08-20T23:41:43.117Z,6.20
2017-08-20T23:44:10.640Z,5.80
2017-08-20T23:46:38.138Z,7.40
2017-08-20T23:49:06.566Z,6.15
2017-08-20T23:51:34.093Z,6.60
2017-08-20T23:54:01.614Z,6.03
2017-08-20T23:56:29.116Z,6.07
2017-08-20T23:58:56.635Z,6.22
